sensor_id;sensor_type;location;lat;lon;timestamp;P1;durP1;ratioP1;P2;durP2;ratioP2
25023;SDS011;13033;50.936;5.334;2022-07-24T00:01:46;10.68;;;7.47;;
25023;SDS011;13033;50.936;5.334;2022-07-24T00:04:12;10.75;;;6.45;;
25023;SDS011;13033;50.936;5.334;2022-07-24T00:06:38;11.40;;;7.28;;
25023;SDS011;13033;50.936;5.334;2022-07-24T00:09:04;9.48;;;6.95;;
25023;SDS011;13033;50.936;5.334;2022-07-24T00:11:30;8.80;;;7.10;;
25023;SDS011;13033;50.936;5.334;2022-07-24T00:13:56;12.00;;;7.40;;
25023;SDS011;13033;50.936;5.334;2022-07-24T00:16:22;8.07;;;6.93;;
25023;SDS011;13033;50.936;5.334;2022-07-24T00:18:47;12.32;;;6.88;;
25023;SDS011;13033;50.936;5.334;2022-07-24T00:21:13;10.60;;;7.20;;
25023;SDS011;13033;50.936;5.334;2022-07-24T00:23:38;11.00;;;6.72;;
25023;SDS011;13033;50.936;5.334;2022-07-24T00:26:04;11.20;;;7.50;;
25023;SDS011;13033;50.936;5.334;2022-07-24T00:28:30;11.27;;;6.70;;
25023;SDS011;13033;50.936;5.334;2022-07-24T00:30:56;11.10;;;7.32;;
25023;SDS011;13033;50.936;5.334;2022-07-24T00:33:22;8.63;;;7.40;;
25023;SDS011;13033;50.936;5.334;2022-07-24T00:35:48;11.40;;;7.43;;
25023;SDS011;13033;50.936;5.334;2022-07-24T00:38:13;8.90;;;7.47;;
25023;SDS011;13033;50.936;5.334;2022-07-24T00:40:39;10.15;;;7.72;;
25023;SDS011;13033;50.936;5.334;2022-07-24T00:43:05;8.55;;;6.90;;
25023;SDS011;13033;50.936;5.334;2022-07-24T00:45:31;11.43;;;6.97;;
25023;SDS011;13033;50.936;5.334;2022-07-24T00:47:56;10.05;;;7.05;;
25023;SDS011;13033;50.936;5.334;2022-07-24T00:50:22;10.00;;;7.60;;
25023;SDS011;13033;50.936;5.334;2022-07-24T00:52:48;11.02;;;7.65;;
25023;SDS011;13033;50.936;5.334;2022-07-24T00:55:14;10.95;;;7.88;;
25023;SDS011;13033;50.936;5.334;2022-07-24T00:57:40;11.02;;;8.65;;
25023;SDS011;13033;50.936;5.334;2022-07-24T01:00:09;10.85;;;8.52;;
25023;SDS011;13033;50.936;5.334;2022-07-24T01:02:38;10.73;;;8.43;;
25023;SDS011;13033;50.936;5.334;2022-07-24T01:05:05;10.20;;;9.00;;
25023;SDS011;13033;50.936;5.334;2022-07-24T01:07:31;10.63;;;8.68;;
25023;SDS011;13033;50.936;5.334;2022-07-24T01:09:57;10.10;;;8.48;;
25023;SDS011;13033;50.936;5.334;2022-07-24T01:12:22;11.65;;;8.50;;
25023;SDS011;13033;50.936;5.334;2022-07-24T01:14:49;12.77;;;9.15;;
25023;SDS011;13033;50.936;5.334;2022-07-24T01:17:14;11.30;;;9.30;;
25023;SDS011;13033;50.936;5.334;2022-07-24T01:19:40;10.20;;;8.82;;
25023;SDS011;13033;50.936;5.334;2022-07-24T01:22:05;13.90;;;8.90;;
25023;SDS011;13033;50.936;5.334;2022-07-24T01:24:31;10.77;;;8.75;;
25023;SDS011;13033;50.936;5.334;2022-07-24T01:26:57;10.73;;;8.02;;
25023;SDS011;13033;50.936;5.334;2022-07-24T01:29:22;11.57;;;9.18;;
25023;SDS011;13033;50.936;5.334;2022-07-24T01:31:48;12.57;;;8.32;;
25023;SDS011;13033;50.936;5.334;2022-07-24T01:34:14;10.65;;;8.60;;
25023;SDS011;13033;50.936;5.334;2022-07-24T01:36:39;12.27;;;9.65;;
25023;SDS011;13033;50.936;5.334;2022-07-24T01:39:05;12.40;;;9.65;;
25023;SDS011;13033;50.936;5.334;2022-07-24T01:41:31;11.75;;;9.35;;
25023;SDS011;13033;50.936;5.334;2022-07-24T01:43:57;13.07;;;9.70;;
25023;SDS011;13033;50.936;5.334;2022-07-24T01:46:22;13.60;;;9.85;;
25023;SDS011;13033;50.936;5.334;2022-07-24T01:48:48;11.75;;;9.40;;
25023;SDS011;13033;50.936;5.334;2022-07-24T01:51:13;12.00;;;9.73;;
25023;SDS011;13033;50.936;5.334;2022-07-24T01:53:39;13.13;;;9.80;;
25023;SDS011;13033;50.936;5.334;2022-07-24T01:56:05;10.38;;;9.25;;
25023;SDS011;13033;50.936;5.334;2022-07-24T01:58:31;13.43;;;10.15;;
25023;SDS011;13033;50.936;5.334;2022-07-24T02:00:57;14.30;;;9.23;;
25023;SDS011;13033;50.936;5.334;2022-07-24T02:03:22;14.63;;;10.45;;
25023;SDS011;13033;50.936;5.334;2022-07-24T02:05:48;13.73;;;10.30;;
25023;SDS011;13033;50.936;5.334;2022-07-24T02:08:14;16.77;;;10.23;;
25023;SDS011;13033;50.936;5.334;2022-07-24T02:10:39;13.80;;;10.40;;
25023;SDS011;13033;50.936;5.334;2022-07-24T02:13:05;11.18;;;9.23;;
25023;SDS011;13033;50.936;5.334;2022-07-24T02:15:31;14.93;;;10.55;;
25023;SDS011;13033;50.936;5.334;2022-07-24T02:17:58;16.08;;;10.63;;
25023;SDS011;13033;50.936;5.334;2022-07-24T02:20:25;14.60;;;10.70;;
25023;SDS011;13033;50.936;5.334;2022-07-24T02:22:51;14.80;;;11.27;;
25023;SDS011;13033;50.936;5.334;2022-07-24T02:25:17;14.55;;;11.43;;
25023;SDS011;13033;50.936;5.334;2022-07-24T02:27:43;15.35;;;11.60;;
25023;SDS011;13033;50.936;5.334;2022-07-24T02:30:10;14.88;;;12.07;;
25023;SDS011;13033;50.936;5.334;2022-07-24T02:32:37;14.88;;;12.60;;
25023;SDS011;13033;50.936;5.334;2022-07-24T02:35:03;19.13;;;13.63;;
25023;SDS011;13033;50.936;5.334;2022-07-24T02:37:30;19.25;;;14.15;;
25023;SDS011;13033;50.936;5.334;2022-07-24T02:39:55;20.50;;;13.68;;
25023;SDS011;13033;50.936;5.334;2022-07-24T02:42:21;20.65;;;14.88;;
25023;SDS011;13033;50.936;5.334;2022-07-24T02:44:47;22.13;;;17.00;;
25023;SDS011;13033;50.936;5.334;2022-07-24T02:47:12;23.85;;;16.95;;
25023;SDS011;13033;50.936;5.334;2022-07-24T02:49:38;21.98;;;16.92;;
25023;SDS011;13033;50.936;5.334;2022-07-24T02:52:04;22.02;;;17.63;;
25023;SDS011;13033;50.936;5.334;2022-07-24T02:54:29;25.45;;;17.98;;
25023;SDS011;13033;50.936;5.334;2022-07-24T02:56:55;24.48;;;17.60;;
25023;SDS011;13033;50.936;5.334;2022-07-24T02:59:21;22.83;;;16.85;;
25023;SDS011;13033;50.936;5.334;2022-07-24T03:01:48;25.67;;;18.55;;
25023;SDS011;13033;50.936;5.334;2022-07-24T03:04:13;21.95;;;17.50;;
25023;SDS011;13033;50.936;5.334;2022-07-24T03:06:39;25.83;;;18.83;;
25023;SDS011;13033;50.936;5.334;2022-07-24T03:09:05;30.17;;;20.13;;
25023;SDS011;13033;50.936;5.334;2022-07-24T03:11:30;26.63;;;19.40;;
25023;SDS011;13033;50.936;5.334;2022-07-24T03:13:56;27.00;;;19.48;;
25023;SDS011;13033;50.936;5.334;2022-07-24T03:16:21;24.10;;;19.50;;
25023;SDS011;13033;50.936;5.334;2022-07-24T03:18:47;29.40;;;19.80;;
25023;SDS011;13033;50.936;5.334;2022-07-24T03:21:16;30.00;;;20.33;;
25023;SDS011;13033;50.936;5.334;2022-07-24T03:23:42;29.48;;;20.73;;
25023;SDS011;13033;50.936;5.334;2022-07-24T03:26:08;27.85;;;21.10;;
25023;SDS011;13033;50.936;5.334;2022-07-24T03:28:34;29.58;;;21.92;;
25023;SDS011;13033;50.936;5.334;2022-07-24T03:31:00;27.75;;;22.15;;
25023;SDS011;13033;50.936;5.334;2022-07-24T03:33:27;29.27;;;22.17;;
25023;SDS011;13033;50.936;5.334;2022-07-24T03:35:53;31.85;;;22.45;;
25023;SDS011;13033;50.936;5.334;2022-07-24T03:38:19;28.15;;;21.38;;
25023;SDS011;13033;50.936;5.334;2022-07-24T03:40:45;29.00;;;21.50;;
25023;SDS011;13033;50.936;5.334;2022-07-24T03:43:11;31.50;;;22.40;;
25023;SDS011;13033;50.936;5.334;2022-07-24T03:45:37;30.80;;;22.48;;
25023;SDS011;13033;50.936;5.334;2022-07-24T03:48:03;30.23;;;22.17;;
25023;SDS011;13033;50.936;5.334;2022-07-24T03:50:29;29.77;;;23.48;;
25023;SDS011;13033;50.936;5.334;2022-07-24T03:52:55;29.85;;;22.58;;
25023;SDS011;13033;50.936;5.334;2022-07-24T03:55:21;28.40;;;23.00;;
25023;SDS011;13033;50.936;5.334;2022-07-24T03:57:46;33.85;;;24.48;;
25023;SDS011;13033;50.936;5.334;2022-07-24T04:00:12;29.05;;;23.80;;
25023;SDS011;13033;50.936;5.334;2022-07-24T04:02:38;30.00;;;24.15;;
25023;SDS011;13033;50.936;5.334;2022-07-24T04:05:04;32.80;;;26.08;;
25023;SDS011;13033;50.936;5.334;2022-07-24T04:07:33;32.83;;;25.15;;
25023;SDS011;13033;50.936;5.334;2022-07-24T04:10:02;33.35;;;26.08;;
25023;SDS011;13033;50.936;5.334;2022-07-24T04:12:29;35.22;;;26.17;;
25023;SDS011;13033;50.936;5.334;2022-07-24T04:14:55;31.55;;;25.20;;
25023;SDS011;13033;50.936;5.334;2022-07-24T04:17:21;34.80;;;26.75;;
25023;SDS011;13033;50.936;5.334;2022-07-24T04:19:47;35.40;;;26.80;;
25023;SDS011;13033;50.936;5.334;2022-07-24T04:22:13;40.63;;;27.77;;
25023;SDS011;13033;50.936;5.334;2022-07-24T04:24:38;34.13;;;28.45;;
25023;SDS011;13033;50.936;5.334;2022-07-24T04:27:04;42.47;;;30.17;;
25023;SDS011;13033;50.936;5.334;2022-07-24T04:29:30;40.90;;;30.77;;
25023;SDS011;13033;50.936;5.334;2022-07-24T04:31:56;39.95;;;29.63;;
25023;SDS011;13033;50.936;5.334;2022-07-24T04:34:21;42.88;;;31.30;;
25023;SDS011;13033;50.936;5.334;2022-07-24T04:36:47;41.42;;;30.52;;
25023;SDS011;13033;50.936;5.334;2022-07-24T04:39:13;41.78;;;31.17;;
25023;SDS011;13033;50.936;5.334;2022-07-24T04:41:39;43.38;;;31.90;;
25023;SDS011;13033;50.936;5.334;2022-07-24T04:44:05;42.28;;;31.17;;
25023;SDS011;13033;50.936;5.334;2022-07-24T04:46:30;44.45;;;33.28;;
25023;SDS011;13033;50.936;5.334;2022-07-24T04:48:56;43.15;;;32.05;;
25023;SDS011;13033;50.936;5.334;2022-07-24T04:51:22;41.47;;;31.75;;
25023;SDS011;13033;50.936;5.334;2022-07-24T04:53:47;40.72;;;32.03;;
25023;SDS011;13033;50.936;5.334;2022-07-24T04:56:17;42.38;;;32.70;;
25023;SDS011;13033;50.936;5.334;2022-07-24T04:58:46;38.53;;;32.17;;
25023;SDS011;13033;50.936;5.334;2022-07-24T05:01:13;40.67;;;31.95;;
25023;SDS011;13033;50.936;5.334;2022-07-24T05:03:38;45.20;;;33.60;;
25023;SDS011;13033;50.936;5.334;2022-07-24T05:06:04;43.65;;;33.28;;
25023;SDS011;13033;50.936;5.334;2022-07-24T05:08:30;40.08;;;34.08;;
25023;SDS011;13033;50.936;5.334;2022-07-24T05:10:56;44.75;;;34.92;;
25023;SDS011;13033;50.936;5.334;2022-07-24T05:13:22;45.40;;;35.13;;
25023;SDS011;13033;50.936;5.334;2022-07-24T05:15:47;43.33;;;33.97;;
25023;SDS011;13033;50.936;5.334;2022-07-24T05:18:13;44.15;;;34.42;;
25023;SDS011;13033;50.936;5.334;2022-07-24T05:20:39;44.95;;;33.13;;
25023;SDS011;13033;50.936;5.334;2022-07-24T05:23:04;48.70;;;35.75;;
25023;SDS011;13033;50.936;5.334;2022-07-24T05:25:30;45.75;;;34.85;;
25023;SDS011;13033;50.936;5.334;2022-07-24T05:27:56;46.40;;;35.92;;
25023;SDS011;13033;50.936;5.334;2022-07-24T05:30:22;44.67;;;34.92;;
25023;SDS011;13033;50.936;5.334;2022-07-24T05:32:47;48.13;;;35.95;;
25023;SDS011;13033;50.936;5.334;2022-07-24T05:35:13;47.60;;;35.90;;
25023;SDS011;13033;50.936;5.334;2022-07-24T05:37:39;45.05;;;35.50;;
25023;SDS011;13033;50.936;5.334;2022-07-24T05:40:05;48.53;;;37.78;;
25023;SDS011;13033;50.936;5.334;2022-07-24T05:42:31;52.33;;;36.42;;
25023;SDS011;13033;50.936;5.334;2022-07-24T05:44:56;49.60;;;36.60;;
25023;SDS011;13033;50.936;5.334;2022-07-24T05:47:22;48.78;;;38.40;;
25023;SDS011;13033;50.936;5.334;2022-07-24T05:49:47;45.83;;;36.92;;
25023;SDS011;13033;50.936;5.334;2022-07-24T05:52:13;45.17;;;36.03;;
25023;SDS011;13033;50.936;5.334;2022-07-24T05:54:39;42.95;;;35.55;;
25023;SDS011;13033;50.936;5.334;2022-07-24T05:57:04;46.75;;;36.10;;
25023;SDS011;13033;50.936;5.334;2022-07-24T05:59:30;47.50;;;35.15;;
25023;SDS011;13033;50.936;5.334;2022-07-24T06:01:56;47.80;;;35.28;;
25023;SDS011;13033;50.936;5.334;2022-07-24T06:04:21;44.10;;;34.75;;
25023;SDS011;13033;50.936;5.334;2022-07-24T06:06:47;48.47;;;37.13;;
25023;SDS011;13033;50.936;5.334;2022-07-24T06:09:13;47.10;;;36.05;;
25023;SDS011;13033;50.936;5.334;2022-07-24T06:11:38;43.58;;;35.28;;
25023;SDS011;13033;50.936;5.334;2022-07-24T06:14:04;48.00;;;37.40;;
25023;SDS011;13033;50.936;5.334;2022-07-24T06:16:30;44.03;;;36.05;;
25023;SDS011;13033;50.936;5.334;2022-07-24T06:18:55;41.92;;;32.80;;
25023;SDS011;13033;50.936;5.334;2022-07-24T06:21:21;43.70;;;32.95;;
25023;SDS011;13033;50.936;5.334;2022-07-24T06:23:46;41.15;;;32.15;;
25023;SDS011;13033;50.936;5.334;2022-07-24T06:26:12;46.30;;;32.15;;
25023;SDS011;13033;50.936;5.334;2022-07-24T06:28:38;35.35;;;29.15;;
25023;SDS011;13033;50.936;5.334;2022-07-24T06:31:03;40.83;;;29.38;;
25023;SDS011;13033;50.936;5.334;2022-07-24T06:33:29;37.65;;;29.63;;
25023;SDS011;13033;50.936;5.334;2022-07-24T06:35:55;35.60;;;27.20;;
25023;SDS011;13033;50.936;5.334;2022-07-24T06:38:20;35.65;;;28.20;;
25023;SDS011;13033;50.936;5.334;2022-07-24T06:40:46;38.78;;;27.17;;
25023;SDS011;13033;50.936;5.334;2022-07-24T06:43:12;36.40;;;29.25;;
25023;SDS011;13033;50.936;5.334;2022-07-24T06:45:37;36.03;;;28.15;;
25023;SDS011;13033;50.936;5.334;2022-07-24T06:48:04;35.53;;;27.80;;
25023;SDS011;13033;50.936;5.334;2022-07-24T06:50:30;39.78;;;27.60;;
25023;SDS011;13033;50.936;5.334;2022-07-24T06:52:56;30.58;;;25.85;;
25023;SDS011;13033;50.936;5.334;2022-07-24T06:55:21;28.00;;;22.52;;
25023;SDS011;13033;50.936;5.334;2022-07-24T06:57:47;34.20;;;24.20;;
25023;SDS011;13033;50.936;5.334;2022-07-24T07:00:13;27.75;;;21.88;;
25023;SDS011;13033;50.936;5.334;2022-07-24T07:02:39;24.98;;;19.05;;
25023;SDS011;13033;50.936;5.334;2022-07-24T07:05:05;26.52;;;17.95;;
25023;SDS011;13033;50.936;5.334;2022-07-24T07:07:32;26.63;;;19.92;;
25023;SDS011;13033;50.936;5.334;2022-07-24T07:09:58;27.38;;;18.70;;
25023;SDS011;13033;50.936;5.334;2022-07-24T07:12:24;28.83;;;20.25;;
25023;SDS011;13033;50.936;5.334;2022-07-24T07:14:49;30.08;;;20.70;;
25023;SDS011;13033;50.936;5.334;2022-07-24T07:17:15;25.67;;;20.00;;
25023;SDS011;13033;50.936;5.334;2022-07-24T07:19:41;29.52;;;20.40;;
25023;SDS011;13033;50.936;5.334;2022-07-24T07:22:07;31.15;;;21.08;;
25023;SDS011;13033;50.936;5.334;2022-07-24T07:24:33;29.55;;;22.45;;
25023;SDS011;13033;50.936;5.334;2022-07-24T07:26:59;27.42;;;21.40;;
25023;SDS011;13033;50.936;5.334;2022-07-24T07:29:25;31.00;;;23.67;;
25023;SDS011;13033;50.936;5.334;2022-07-24T07:31:51;36.97;;;22.40;;
25023;SDS011;13033;50.936;5.334;2022-07-24T07:34:17;29.75;;;24.23;;
25023;SDS011;13033;50.936;5.334;2022-07-24T07:36:42;28.90;;;23.10;;
25023;SDS011;13033;50.936;5.334;2022-07-24T07:39:08;28.95;;;22.92;;
25023;SDS011;13033;50.936;5.334;2022-07-24T07:41:34;30.95;;;22.23;;
25023;SDS011;13033;50.936;5.334;2022-07-24T07:44:00;31.27;;;21.90;;
25023;SDS011;13033;50.936;5.334;2022-07-24T07:46:26;28.52;;;22.88;;
25023;SDS011;13033;50.936;5.334;2022-07-24T07:48:51;32.03;;;22.15;;
25023;SDS011;13033;50.936;5.334;2022-07-24T07:51:17;28.20;;;22.40;;
25023;SDS011;13033;50.936;5.334;2022-07-24T07:53:43;28.70;;;21.10;;
25023;SDS011;13033;50.936;5.334;2022-07-24T07:56:08;28.63;;;22.92;;
25023;SDS011;13033;50.936;5.334;2022-07-24T07:58:34;32.05;;;22.13;;
25023;SDS011;13033;50.936;5.334;2022-07-24T08:01:00;29.15;;;22.83;;
25023;SDS011;13033;50.936;5.334;2022-07-24T08:03:25;27.48;;;22.42;;
25023;SDS011;13033;50.936;5.334;2022-07-24T08:05:51;32.97;;;22.13;;
25023;SDS011;13033;50.936;5.334;2022-07-24T08:08:17;27.50;;;21.80;;
25023;SDS011;13033;50.936;5.334;2022-07-24T08:10:42;27.92;;;20.38;;
25023;SDS011;13033;50.936;5.334;2022-07-24T08:13:08;27.85;;;20.58;;
25023;SDS011;13033;50.936;5.334;2022-07-24T08:15:34;29.05;;;18.70;;
25023;SDS011;13033;50.936;5.334;2022-07-24T08:17:59;23.98;;;18.85;;
25023;SDS011;13033;50.936;5.334;2022-07-24T08:20:26;24.08;;;19.17;;
25023;SDS011;13033;50.936;5.334;2022-07-24T08:22:52;25.95;;;19.30;;
25023;SDS011;13033;50.936;5.334;2022-07-24T08:25:19;25.17;;;19.25;;
25023;SDS011;13033;50.936;5.334;2022-07-24T08:27:46;22.63;;;16.58;;
25023;SDS011;13033;50.936;5.334;2022-07-24T08:30:12;19.15;;;14.07;;
25023;SDS011;13033;50.936;5.334;2022-07-24T08:32:38;19.65;;;14.00;;
25023;SDS011;13033;50.936;5.334;2022-07-24T08:35:05;17.52;;;11.43;;
25023;SDS011;13033;50.936;5.334;2022-07-24T08:37:35;18.98;;;13.52;;
25023;SDS011;13033;50.936;5.334;2022-07-24T08:40:07;13.90;;;8.60;;
25023;SDS011;13033;50.936;5.334;2022-07-24T08:42:34;13.20;;;9.35;;
25023;SDS011;13033;50.936;5.334;2022-07-24T08:45:01;14.05;;;9.90;;
25023;SDS011;13033;50.936;5.334;2022-07-24T08:47:31;16.65;;;10.75;;
25023;SDS011;13033;50.936;5.334;2022-07-24T08:50:00;13.93;;;10.32;;
25023;SDS011;13033;50.936;5.334;2022-07-24T08:52:29;13.27;;;9.27;;
25023;SDS011;13033;50.936;5.334;2022-07-24T08:54:55;9.95;;;7.70;;
25023;SDS011;13033;50.936;5.334;2022-07-24T08:57:21;12.95;;;8.70;;
25023;SDS011;13033;50.936;5.334;2022-07-24T08:59:46;10.13;;;7.20;;
25023;SDS011;13033;50.936;5.334;2022-07-24T09:02:12;10.70;;;6.95;;
25023;SDS011;13033;50.936;5.334;2022-07-24T09:04:42;11.93;;;8.05;;
25023;SDS011;13033;50.936;5.334;2022-07-24T09:09:37;8.15;;;6.63;;
25023;SDS011;13033;50.936;5.334;2022-07-24T09:12:05;11.40;;;7.20;;
25023;SDS011;13033;50.936;5.334;2022-07-24T09:14:33;9.88;;;7.03;;
25023;SDS011;13033;50.936;5.334;2022-07-24T09:17:03;12.23;;;7.53;;
25023;SDS011;13033;50.936;5.334;2022-07-24T09:20:01;13.07;;;7.95;;
25023;SDS011;13033;50.936;5.334;2022-07-24T09:22:36;8.00;;;6.95;;
25023;SDS011;13033;50.936;5.334;2022-07-24T09:27:52;8.77;;;6.88;;
25023;SDS011;13033;50.936;5.334;2022-07-24T09:30:29;7.93;;;6.90;;
25023;SDS011;13033;50.936;5.334;2022-07-24T09:33:01;9.52;;;6.70;;
25023;SDS011;13033;50.936;5.334;2022-07-24T09:35:32;7.15;;;5.85;;
25023;SDS011;13033;50.936;5.334;2022-07-24T09:38:03;8.63;;;6.38;;
25023;SDS011;13033;50.936;5.334;2022-07-24T09:40:35;7.60;;;6.18;;
25023;SDS011;13033;50.936;5.334;2022-07-24T09:43:12;8.40;;;7.05;;
25023;SDS011;13033;50.936;5.334;2022-07-24T09:48:34;8.90;;;5.82;;
25023;SDS011;13033;50.936;5.334;2022-07-24T09:51:13;7.05;;;5.40;;
25023;SDS011;13033;50.936;5.334;2022-07-24T09:53:40;5.43;;;4.70;;
25023;SDS011;13033;50.936;5.334;2022-07-24T09:58:33;4.57;;;3.67;;
25023;SDS011;13033;50.936;5.334;2022-07-24T10:01:00;5.30;;;3.40;;
25023;SDS011;13033;50.936;5.334;2022-07-24T10:03:28;4.88;;;3.45;;
25023;SDS011;13033;50.936;5.334;2022-07-24T10:05:58;6.65;;;3.58;;
25023;SDS011;13033;50.936;5.334;2022-07-24T10:08:25;4.22;;;3.28;;
25023;SDS011;13033;50.936;5.334;2022-07-24T10:10:52;4.20;;;3.60;;
25023;SDS011;13033;50.936;5.334;2022-07-24T10:13:18;5.50;;;3.67;;
25023;SDS011;13033;50.936;5.334;2022-07-24T10:16:28;4.90;;;3.30;;
25023;SDS011;13033;50.936;5.334;2022-07-24T10:21:17;4.25;;;3.20;;
25023;SDS011;13033;50.936;5.334;2022-07-24T10:26:40;6.88;;;3.00;;
25023;SDS011;13033;50.936;5.334;2022-07-24T10:29:18;5.47;;;2.90;;
25023;SDS011;13033;50.936;5.334;2022-07-24T10:31:52;2.85;;;2.47;;
25023;SDS011;13033;50.936;5.334;2022-07-24T10:34:29;3.10;;;2.33;;
25023;SDS011;13033;50.936;5.334;2022-07-24T10:45:42;3.03;;;2.60;;
25023;SDS011;13033;50.936;5.334;2022-07-24T10:51:09;3.85;;;2.55;;
25023;SDS011;13033;50.936;5.334;2022-07-24T10:58:53;4.13;;;2.78;;
25023;SDS011;13033;50.936;5.334;2022-07-24T11:03:59;3.50;;;2.50;;
25023;SDS011;13033;50.936;5.334;2022-07-24T11:06:50;3.22;;;2.50;;
25023;SDS011;13033;50.936;5.334;2022-07-24T11:12:29;3.42;;;2.53;;
25023;SDS011;13033;50.936;5.334;2022-07-24T11:14:59;3.20;;;2.28;;
25023;SDS011;13033;50.936;5.334;2022-07-24T11:17:44;3.88;;;2.40;;
25023;SDS011;13033;50.936;5.334;2022-07-24T11:20:21;4.38;;;2.30;;
25023;SDS011;13033;50.936;5.334;2022-07-24T11:27:51;3.50;;;2.47;;
25023;SDS011;13033;50.936;5.334;2022-07-24T11:30:21;3.80;;;2.25;;
25023;SDS011;13033;50.936;5.334;2022-07-24T11:32:48;5.03;;;2.20;;
25023;SDS011;13033;50.936;5.334;2022-07-24T11:35:13;2.60;;;2.38;;
25023;SDS011;13033;50.936;5.334;2022-07-24T11:37:40;5.55;;;2.10;;
25023;SDS011;13033;50.936;5.334;2022-07-24T11:40:07;3.10;;;2.10;;
25023;SDS011;13033;50.936;5.334;2022-07-24T11:42:34;3.78;;;2.30;;
25023;SDS011;13033;50.936;5.334;2022-07-24T11:45:00;2.58;;;2.00;;
25023;SDS011;13033;50.936;5.334;2022-07-24T11:47:27;4.25;;;2.30;;
25023;SDS011;13033;50.936;5.334;2022-07-24T11:54:50;3.30;;;2.13;;
25023;SDS011;13033;50.936;5.334;2022-07-24T11:59:47;2.65;;;2.20;;
25023;SDS011;13033;50.936;5.334;2022-07-24T12:02:15;2.53;;;2.30;;
25023;SDS011;13033;50.936;5.334;2022-07-24T12:04:41;2.58;;;2.08;;
25023;SDS011;13033;50.936;5.334;2022-07-24T12:07:25;3.60;;;2.05;;
25023;SDS011;13033;50.936;5.334;2022-07-24T12:09:53;2.60;;;2.40;;
25023;SDS011;13033;50.936;5.334;2022-07-24T12:12:24;2.47;;;2.20;;
25023;SDS011;13033;50.936;5.334;2022-07-24T12:17:34;3.50;;;2.13;;
25023;SDS011;13033;50.936;5.334;2022-07-24T12:20:19;3.78;;;2.33;;
25023;SDS011;13033;50.936;5.334;2022-07-24T12:22:46;2.55;;;2.35;;
25023;SDS011;13033;50.936;5.334;2022-07-24T12:25:12;4.53;;;2.55;;
25023;SDS011;13033;50.936;5.334;2022-07-24T12:27:43;4.30;;;2.20;;
25023;SDS011;13033;50.936;5.334;2022-07-24T12:30:17;3.58;;;2.22;;
25023;SDS011;13033;50.936;5.334;2022-07-24T12:32:53;3.03;;;2.00;;
25023;SDS011;13033;50.936;5.334;2022-07-24T12:35:21;4.38;;;2.10;;
25023;SDS011;13033;50.936;5.334;2022-07-24T12:37:47;3.22;;;2.40;;
25023;SDS011;13033;50.936;5.334;2022-07-24T12:40:23;4.40;;;2.00;;
25023;SDS011;13033;50.936;5.334;2022-07-24T12:43:07;3.85;;;2.22;;
25023;SDS011;13033;50.936;5.334;2022-07-24T12:45:34;3.22;;;2.00;;
25023;SDS011;13033;50.936;5.334;2022-07-24T12:50:31;2.85;;;2.00;;
25023;SDS011;13033;50.936;5.334;2022-07-24T12:53:07;4.05;;;2.00;;
25023;SDS011;13033;50.936;5.334;2022-07-24T12:55:34;3.42;;;2.10;;
25023;SDS011;13033;50.936;5.334;2022-07-24T12:58:01;2.50;;;2.22;;
25023;SDS011;13033;50.936;5.334;2022-07-24T13:00:28;4.35;;;2.40;;
25023;SDS011;13033;50.936;5.334;2022-07-24T13:02:55;3.03;;;2.28;;
25023;SDS011;13033;50.936;5.334;2022-07-24T13:05:40;3.97;;;2.17;;
25023;SDS011;13033;50.936;5.334;2022-07-24T13:08:07;4.70;;;2.38;;
25023;SDS011;13033;50.936;5.334;2022-07-24T13:10:36;4.22;;;2.45;;
25023;SDS011;13033;50.936;5.334;2022-07-24T13:13:02;2.58;;;2.38;;
25023;SDS011;13033;50.936;5.334;2022-07-24T13:15:28;4.07;;;2.20;;
25023;SDS011;13033;50.936;5.334;2022-07-24T13:17:54;6.55;;;2.40;;
25023;SDS011;13033;50.936;5.334;2022-07-24T13:20:19;3.83;;;2.50;;
25023;SDS011;13033;50.936;5.334;2022-07-24T13:22:45;3.67;;;2.70;;
25023;SDS011;13033;50.936;5.334;2022-07-24T13:25:11;4.03;;;2.95;;
25023;SDS011;13033;50.936;5.334;2022-07-24T13:27:36;5.40;;;2.97;;
25023;SDS011;13033;50.936;5.334;2022-07-24T13:30:02;5.13;;;2.70;;
25023;SDS011;13033;50.936;5.334;2022-07-24T13:32:28;5.30;;;3.00;;
25023;SDS011;13033;50.936;5.334;2022-07-24T13:34:54;3.90;;;2.75;;
25023;SDS011;13033;50.936;5.334;2022-07-24T13:37:20;5.85;;;2.90;;
25023;SDS011;13033;50.936;5.334;2022-07-24T13:39:46;8.07;;;2.60;;
25023;SDS011;13033;50.936;5.334;2022-07-24T13:42:11;5.03;;;3.28;;
25023;SDS011;13033;50.936;5.334;2022-07-24T13:44:39;5.78;;;3.28;;
25023;SDS011;13033;50.936;5.334;2022-07-24T13:47:05;4.35;;;2.90;;
25023;SDS011;13033;50.936;5.334;2022-07-24T13:49:31;4.03;;;3.13;;
25023;SDS011;13033;50.936;5.334;2022-07-24T13:51:57;3.58;;;3.10;;
25023;SDS011;13033;50.936;5.334;2022-07-24T13:54:23;3.30;;;3.00;;
25023;SDS011;13033;50.936;5.334;2022-07-24T13:56:48;4.25;;;3.40;;
25023;SDS011;13033;50.936;5.334;2022-07-24T13:59:15;6.32;;;3.10;;
25023;SDS011;13033;50.936;5.334;2022-07-24T14:01:40;3.80;;;3.05;;
25023;SDS011;13033;50.936;5.334;2022-07-24T14:04:06;5.47;;;3.85;;
25023;SDS011;13033;50.936;5.334;2022-07-24T14:06:35;5.07;;;3.83;;
25023;SDS011;13033;50.936;5.334;2022-07-24T14:09:02;4.90;;;3.97;;
25023;SDS011;13033;50.936;5.334;2022-07-24T14:11:29;3.97;;;3.40;;
25023;SDS011;13033;50.936;5.334;2022-07-24T14:13:54;4.32;;;3.75;;
25023;SDS011;13033;50.936;5.334;2022-07-24T14:16:20;3.83;;;3.53;;
25023;SDS011;13033;50.936;5.334;2022-07-24T14:18:46;5.47;;;3.78;;
25023;SDS011;13033;50.936;5.334;2022-07-24T14:21:12;5.03;;;3.53;;
25023;SDS011;13033;50.936;5.334;2022-07-24T14:23:37;4.18;;;3.50;;
25023;SDS011;13033;50.936;5.334;2022-07-24T14:26:03;8.13;;;3.97;;
25023;SDS011;13033;50.936;5.334;2022-07-24T14:28:30;4.10;;;3.67;;
25023;SDS011;13033;50.936;5.334;2022-07-24T14:30:56;4.65;;;3.80;;
25023;SDS011;13033;50.936;5.334;2022-07-24T14:33:22;3.92;;;3.50;;
25023;SDS011;13033;50.936;5.334;2022-07-24T14:35:48;7.28;;;3.90;;
25023;SDS011;13033;50.936;5.334;2022-07-24T14:38:14;4.50;;;4.10;;
25023;SDS011;13033;50.936;5.334;2022-07-24T14:40:39;7.07;;;4.10;;
25023;SDS011;13033;50.936;5.334;2022-07-24T14:43:05;5.35;;;4.05;;
25023;SDS011;13033;50.936;5.334;2022-07-24T14:45:31;5.20;;;3.70;;
25023;SDS011;13033;50.936;5.334;2022-07-24T14:47:57;4.95;;;4.32;;
25023;SDS011;13033;50.936;5.334;2022-07-24T14:50:22;4.80;;;3.70;;
25023;SDS011;13033;50.936;5.334;2022-07-24T14:52:48;5.53;;;3.75;;
25023;SDS011;13033;50.936;5.334;2022-07-24T14:55:14;7.07;;;4.00;;
25023;SDS011;13033;50.936;5.334;2022-07-24T14:57:39;5.38;;;3.90;;
25023;SDS011;13033;50.936;5.334;2022-07-24T15:00:05;5.75;;;4.10;;
25023;SDS011;13033;50.936;5.334;2022-07-24T15:02:32;7.13;;;3.83;;
25023;SDS011;13033;50.936;5.334;2022-07-24T15:04:58;7.63;;;4.20;;
25023;SDS011;13033;50.936;5.334;2022-07-24T15:07:24;7.57;;;5.20;;
25023;SDS011;13033;50.936;5.334;2022-07-24T15:09:50;6.63;;;4.90;;
25023;SDS011;13033;50.936;5.334;2022-07-24T15:12:15;5.90;;;4.20;;
25023;SDS011;13033;50.936;5.334;2022-07-24T15:14:41;5.30;;;4.40;;
25023;SDS011;13033;50.936;5.334;2022-07-24T15:17:07;4.30;;;3.90;;
25023;SDS011;13033;50.936;5.334;2022-07-24T15:19:33;5.80;;;4.60;;
25023;SDS011;13033;50.936;5.334;2022-07-24T15:21:59;6.47;;;4.45;;
25023;SDS011;13033;50.936;5.334;2022-07-24T15:24:25;5.15;;;4.65;;
25023;SDS011;13033;50.936;5.334;2022-07-24T15:26:50;4.90;;;4.40;;
25023;SDS011;13033;50.936;5.334;2022-07-24T15:29:16;5.20;;;4.63;;